Time,TemperatureF,DewpointF,PressureIn,WindDirection,WindDirectionDegrees,WindSpeedMPH,WindSpeedGustMPH,Humidity,HourlyPrecipIn,Conditions,Clouds,dailyrainin,SolarRadiationWatts/m^2,SoftwareType,DateUTC
2013-06-02 00:01:00,67.3,65.0,29.96,ENE,68,0.0,2.0,93,0.00,,,0.00,0,weatherlink.com 1.10,2013-06-02 04:01:00,
2013-06-02 00:17:00,67.6,65.0,29.95,SSE,161,1.0,3.0,92,0.00,,,0.00,0,weatherlink.com 1.10,2013-06-02 04:17:00,
2013-06-02 00:32:00,67.8,65.0,29.95,SSE,166,0.0,4.0,91,0.01,,,0.01,0,weatherlink.com 1.10,2013-06-02 04:32:00,
2013-06-02 00:47:00,67.4,65.0,29.95,SSE,165,0.0,0.0,92,0.01,,,0.01,0,weatherlink.com 1.10,2013-06-02 04:47:00,
2013-06-02 01:02:00,66.8,65.0,29.95,ENE,76,2.0,2.0,93,0.01,,,0.01,0,weatherlink.com 1.10,2013-06-02 05:02:00,
2013-06-02 01:17:00,66.4,65.0,29.95,North,360,2.0,3.0,94,0.01,,,0.01,0,weatherlink.com 1.10,2013-06-02 05:17:00,
2013-06-02 01:32:00,66.4,65.0,29.95,NNW,341,0.0,0.0,95,0.00,,,0.01,0,weatherlink.com 1.10,2013-06-02 05:32:00,
2013-06-02 01:47:00,66.8,65.0,29.95,NNW,342,0.0,2.0,95,0.00,,,0.01,0,weatherlink.com 1.10,2013-06-02 05:47:00,
2013-06-02 02:02:00,66.8,65.0,29.95,NNW,342,0.0,0.0,95,0.00,,,0.01,0,weatherlink.com 1.10,2013-06-02 06:02:00,
2013-06-02 02:17:00,66.9,66.0,29.95,NNW,342,0.0,0.0,95,0.00,,,0.01,0,weatherlink.com 1.10,2013-06-02 06:17:00,
2013-06-02 02:32:00,66.8,65.0,29.95,East,82,0.0,2.0,95,0.00,,,0.01,0,weatherlink.com 1.10,2013-06-02 06:32:00,
2013-06-02 02:47:00,66.7,65.0,29.94,SE,135,1.0,2.0,95,0.00,,,0.01,0,weatherlink.com 1.10,2013-06-02 06:47:00,
2013-06-02 03:02:00,66.8,65.0,29.94,SSE,167,0.0,3.0,95,0.00,,,0.01,0,weatherlink.com 1.10,2013-06-02 07:02:00,
2013-06-02 03:17:00,66.9,66.0,29.94,SSE,167,1.0,1.0,95,0.00,,,0.01,0,weatherlink.com 1.10,2013-06-02 07:17:00,
2013-06-02 03:32:00,67.0,66.0,29.93,East,99,1.0,3.0,95,0.00,,,0.01,0,weatherlink.com 1.10,2013-06-02 07:32:00,
2013-06-02 03:47:00,67.3,66.0,29.93,South,190,1.0,3.0,94,0.00,,,0.01,0,weatherlink.com 1.10,2013-06-02 07:47:00,
2013-06-02 04:02:00,68.4,66.0,29.93,SSE,151,3.0,7.0,91,0.00,,,0.01,0,weatherlink.com 1.10,2013-06-02 08:02:00,
2013-06-02 04:17:00,68.7,66.0,29.93,ESE,114,3.0,6.0,90,0.00,,,0.01,0,weatherlink.com 1.10,2013-06-02 08:17:00,
2013-06-02 04:32:00,68.8,66.0,29.93,SSE,147,0.0,5.0,90,0.00,,,0.01,0,weatherlink.com 1.10,2013-06-02 08:32:00,
2013-06-02 04:47:00,68.6,66.0,29.92,SE,124,2.0,5.0,90,0.00,,,0.01,0,weatherlink.com 1.10,2013-06-02 08:47:00,
2013-06-02 05:02:00,68.5,66.0,29.92,SSE,167,1.0,4.0,90,0.01,,,0.02,0,weatherlink.com 1.10,2013-06-02 09:02:00,
2013-06-02 05:17:00,68.5,65.0,29.91,ESE,115,2.0,7.0,89,0.01,,,0.02,0,weatherlink.com 1.10,2013-06-02 09:17:00,
2013-06-02 05:32:00,68.4,65.0,29.91,South,175,2.0,6.0,90,0.02,,,0.03,0,weatherlink.com 1.10,2013-06-02 09:32:00,
2013-06-02 05:47:00,67.9,65.0,29.92,SW,214,0.0,5.0,91,0.05,,,0.07,0,weatherlink.com 1.10,2013-06-02 09:47:00,
2013-06-02 06:02:00,67.7,65.0,29.93,ESE,120,0.0,0.0,92,0.10,,,0.12,0,weatherlink.com 1.10,2013-06-02 10:02:00,
2013-06-02 06:17:00,67.3,65.0,29.93,ESE,119,2.0,3.0,93,0.27,,,0.29,0,weatherlink.com 1.10,2013-06-02 10:17:00,
2013-06-02 06:32:00,66.9,65.0,29.93,NW,317,0.0,2.0,94,0.36,,,0.40,0,weatherlink.com 1.10,2013-06-02 10:32:00,
2013-06-02 06:47:00,66.7,65.0,29.93,NNW,337,2.0,2.0,94,0.38,,,0.46,0,weatherlink.com 1.10,2013-06-02 10:47:00,
2013-06-02 07:02:00,66.5,65.0,29.93,NNE,13,0.0,2.0,94,0.38,,,0.50,0,weatherlink.com 1.10,2013-06-02 11:02:00,
2013-06-02 07:17:00,66.6,65.0,29.93,South,176,0.0,3.0,94,0.24,,,0.54,0,weatherlink.com 1.10,2013-06-02 11:17:00,
2013-06-02 07:32:00,66.5,65.0,29.92,SE,130,1.0,2.0,95,0.18,,,0.58,5,weatherlink.com 1.10,2013-06-02 11:32:00,
2013-06-02 07:47:00,66.5,65.0,29.93,SSE,168,0.0,3.0,95,0.14,,,0.60,7,weatherlink.com 1.10,2013-06-02 11:47:00,
2013-06-02 08:02:00,66.5,65.0,29.92,SE,144,0.0,0.0,95,0.12,,,0.62,12,weatherlink.com 1.10,2013-06-02 12:02:00,
2013-06-02 08:17:00,66.6,65.0,29.92,NNW,332,2.0,3.0,95,0.09,,,0.63,21,weatherlink.com 1.10,2013-06-02 12:17:00,
2013-06-02 08:32:00,66.8,65.0,29.91,WSW,241,0.0,1.0,95,0.05,,,0.63,65,weatherlink.com 1.10,2013-06-02 12:32:00,
2013-06-02 08:47:00,67.4,66.0,29.91,South,173,1.0,1.0,96,0.03,,,0.63,127,weatherlink.com 1.10,2013-06-02 12:47:00,
2013-06-02 09:02:00,68.2,67.0,29.91,SSW,210,1.0,3.0,95,0.01,,,0.63,153,weatherlink.com 1.10,2013-06-02 13:02:00,
2013-06-02 09:17:00,68.5,67.0,29.91,SSE,156,1.0,4.0,93,0.00,,,0.63,72,weatherlink.com 1.10,2013-06-02 13:17:00,
2013-06-02 09:32:00,68.7,66.0,29.92,SE,127,0.0,5.0,91,0.00,,,0.63,135,weatherlink.com 1.10,2013-06-02 13:32:00,
2013-06-02 09:47:00,69.0,66.0,29.92,SE,124,0.0,4.0,91,0.00,,,0.63,132,weatherlink.com 1.10,2013-06-02 13:47:00,
2013-06-02 10:02:00,69.4,66.0,29.93,SE,139,0.0,3.0,90,0.00,,,0.63,125,weatherlink.com 1.10,2013-06-02 14:02:00,
2013-06-02 10:17:00,69.7,67.0,29.92,SW,217,0.0,1.0,90,0.00,,,0.63,118,weatherlink.com 1.10,2013-06-02 14:17:00,
2013-06-02 10:32:00,70.1,68.0,29.92,SE,130,0.0,1.0,92,0.00,,,0.63,128,weatherlink.com 1.10,2013-06-02 14:32:00,
2013-06-02 10:47:00,70.5,68.0,29.92,NW,304,0.0,1.0,91,0.00,,,0.63,223,weatherlink.com 1.10,2013-06-02 14:47:00,
2013-06-02 11:02:00,70.9,68.0,29.91,West,281,0.0,2.0,91,0.00,,,0.63,223,weatherlink.com 1.10,2013-06-02 15:02:00,
2013-06-02 11:17:00,71.2,68.0,29.92,SE,134,0.0,2.0,89,0.00,,,0.63,216,weatherlink.com 1.10,2013-06-02 15:17:00,
2013-06-02 11:32:00,71.5,68.0,29.91,West,281,0.0,1.0,88,0.00,,,0.63,118,weatherlink.com 1.10,2013-06-02 15:32:00,
2013-06-02 11:48:00,71.7,68.0,29.91,NNW,333,1.0,2.0,87,0.00,,,0.63,211,weatherlink.com 1.10,2013-06-02 15:48:00,
2013-06-02 12:03:00,72.2,69.0,29.91,NW,323,4.0,5.0,88,0.00,,,0.63,213,weatherlink.com 1.10,2013-06-02 16:03:00,
2013-06-02 12:18:00,72.5,69.0,29.91,North,355,2.0,5.0,89,0.00,,,0.63,381,weatherlink.com 1.10,2013-06-02 16:18:00,
2013-06-02 12:33:00,73.0,68.0,29.90,South,169,0.0,3.0,85,0.00,,,0.63,204,weatherlink.com 1.10,2013-06-02 16:33:00,
2013-06-02 12:48:00,73.1,69.0,29.90,WNW,298,0.0,3.0,86,0.00,,,0.63,352,weatherlink.com 1.10,2013-06-02 16:48:00,
2013-06-02 13:03:00,74.6,70.0,29.89,ESE,110,0.0,3.0,85,0.00,,,0.63,670,weatherlink.com 1.10,2013-06-02 17:03:00,
2013-06-02 13:18:00,76.1,70.0,29.89,SSE,162,3.0,5.0,80,0.00,,,0.63,431,weatherlink.com 1.10,2013-06-02 17:18:00,
2013-06-02 13:33:00,76.0,68.0,29.88,SSW,197,1.0,7.0,77,0.00,,,0.63,415,weatherlink.com 1.10,2013-06-02 17:33:00,
2013-06-02 13:48:00,76.6,68.0,29.87,SSE,148,0.0,6.0,74,0.00,,,0.63,360,weatherlink.com 1.10,2013-06-02 17:48:00,
2013-06-02 14:03:00,76.1,68.0,29.87,SSW,198,5.0,7.0,77,0.00,,,0.63,214,weatherlink.com 1.10,2013-06-02 18:03:00,
2013-06-02 14:18:00,75.1,68.0,29.87,North,355,2.0,5.0,79,0.00,,,0.63,72,weatherlink.com 1.10,2013-06-02 18:18:00,
2013-06-02 14:33:00,74.4,69.0,29.88,South,174,0.0,4.0,82,0.00,,,0.63,39,weatherlink.com 1.10,2013-06-02 18:33:00,
2013-06-02 14:48:00,71.1,65.0,29.90,NW,305,3.0,11.0,82,0.01,,,0.64,14,weatherlink.com 1.10,2013-06-02 18:48:00,
2013-06-02 15:03:00,68.6,65.0,29.89,NNE,16,3.0,8.0,89,0.07,,,0.70,193,weatherlink.com 1.10,2013-06-02 19:03:00,
2013-06-02 15:18:00,68.4,65.0,29.88,ESE,118,0.0,5.0,88,0.07,,,0.70,308,weatherlink.com 1.10,2013-06-02 19:18:00,
2013-06-02 15:33:00,69.8,66.0,29.88,ENE,65,1.0,3.0,88,0.08,,,0.71,425,weatherlink.com 1.10,2013-06-02 19:33:00,
2013-06-02 15:48:00,69.9,66.0,29.88,NNW,338,3.0,7.0,87,0.07,,,0.71,360,weatherlink.com 1.10,2013-06-02 19:48:00,
2013-06-02 16:03:00,70.6,66.0,29.86,North,355,0.0,7.0,85,0.01,,,0.71,448,weatherlink.com 1.10,2013-06-02 20:03:00,
2013-06-02 16:18:00,70.9,66.0,29.87,NW,318,4.0,5.0,85,0.01,,,0.71,378,weatherlink.com 1.10,2013-06-02 20:18:00,
2013-06-02 16:33:00,71.0,66.0,29.88,NNW,344,0.0,5.0,85,0.00,,,0.71,232,weatherlink.com 1.10,2013-06-02 20:33:00,
2013-06-02 16:48:00,71.2,67.0,29.86,North,350,0.0,3.0,85,0.00,,,0.71,274,weatherlink.com 1.10,2013-06-02 20:48:00,
2013-06-02 17:03:00,71.5,67.0,29.85,NE,43,0.0,2.0,85,0.00,,,0.71,218,weatherlink.com 1.10,2013-06-02 21:03:00,
2013-06-02 17:18:00,71.1,67.0,29.84,NE,55,2.0,3.0,86,0.01,,,0.72,156,weatherlink.com 1.10,2013-06-02 21:18:00,
2013-06-02 17:33:00,71.5,68.0,29.85,NE,53,0.0,2.0,87,0.01,,,0.72,285,weatherlink.com 1.10,2013-06-02 21:33:00,
2013-06-02 17:48:00,72.3,68.0,29.85,SSW,211,0.0,1.0,86,0.01,,,0.72,246,weatherlink.com 1.10,2013-06-02 21:48:00,
2013-06-02 18:03:00,72.1,67.0,29.85,ESE,103,1.0,3.0,85,0.01,,,0.72,139,weatherlink.com 1.10,2013-06-02 22:03:00,
2013-06-02 18:18:00,71.9,68.0,29.84,ESE,121,1.0,2.0,86,0.00,,,0.72,118,weatherlink.com 1.10,2013-06-02 22:18:00,
2013-06-02 18:33:00,71.8,68.0,29.84,SSE,149,1.0,2.0,88,0.00,,,0.72,151,weatherlink.com 1.10,2013-06-02 22:33:00,
2013-06-02 18:48:00,72.0,68.0,29.84,SE,139,0.0,4.0,88,0.00,,,0.72,241,weatherlink.com 1.10,2013-06-02 22:48:00,
2013-06-02 19:03:00,72.2,68.0,29.85,SE,144,1.0,3.0,86,0.00,,,0.72,167,weatherlink.com 1.10,2013-06-02 23:03:00,
2013-06-02 19:18:00,72.2,68.0,29.85,South,183,1.0,2.0,87,0.00,,,0.72,128,weatherlink.com 1.10,2013-06-02 23:18:00,
2013-06-02 19:33:00,72.0,68.0,29.85,SE,126,0.0,1.0,87,0.00,,,0.72,90,weatherlink.com 1.10,2013-06-02 23:33:00,
2013-06-02 19:48:00,71.8,69.0,29.85,SE,126,0.0,1.0,89,0.00,,,0.72,67,weatherlink.com 1.10,2013-06-02 23:48:00,
2013-06-02 20:03:00,71.5,69.0,29.86,East,85,0.0,1.0,90,0.00,,,0.72,33,weatherlink.com 1.10,2013-06-03 00:03:00,
2013-06-02 20:18:00,70.6,68.0,29.86,North,10,0.0,2.0,91,0.00,,,0.72,12,weatherlink.com 1.10,2013-06-03 00:18:00,
2013-06-02 20:33:00,69.6,67.0,29.86,SE,126,0.0,1.0,92,0.00,,,0.72,7,weatherlink.com 1.10,2013-06-03 00:33:00,
2013-06-02 20:48:00,68.8,67.0,29.86,NW,307,0.0,2.0,93,0.00,,,0.72,0,weatherlink.com 1.10,2013-06-03 00:48:00,
2013-06-02 21:03:00,68.1,66.0,29.86,South,187,0.0,2.0,94,0.00,,,0.72,0,weatherlink.com 1.10,2013-06-03 01:03:00,
2013-06-02 21:18:00,67.8,66.0,29.87,SSE,153,0.0,0.0,94,0.00,,,0.72,0,weatherlink.com 1.10,2013-06-03 01:18:00,
2013-06-02 21:33:00,67.4,66.0,29.86,SE,135,0.0,2.0,94,0.00,,,0.72,0,weatherlink.com 1.10,2013-06-03 01:33:00,
2013-06-02 21:48:00,66.9,65.0,29.87,SE,135,0.0,1.0,94,0.00,,,0.72,0,weatherlink.com 1.10,2013-06-03 01:48:00,
2013-06-02 22:03:00,66.7,65.0,29.88,SE,135,0.0,2.0,95,0.00,,,0.72,0,weatherlink.com 1.10,2013-06-03 02:03:00,
2013-06-02 22:18:00,66.6,65.0,29.88,ESE,104,0.0,2.0,95,0.00,,,0.72,0,weatherlink.com 1.10,2013-06-03 02:18:00,
2013-06-02 22:33:00,66.6,65.0,29.88,North,360,0.0,3.0,95,0.00,,,0.72,0,weatherlink.com 1.10,2013-06-03 02:33:00,
2013-06-02 22:48:00,66.8,66.0,29.88,North,360,0.0,0.0,96,0.00,,,0.72,0,weatherlink.com 1.10,2013-06-03 02:48:00,
2013-06-02 23:03:00,67.1,66.0,29.88,North,360,0.0,0.0,96,0.02,,,0.74,0,weatherlink.com 1.10,2013-06-03 03:03:00,
2013-06-02 23:18:00,67.4,66.0,29.88,South,175,0.0,2.0,96,0.02,,,0.74,0,weatherlink.com 1.10,2013-06-03 03:18:00,
2013-06-02 23:33:00,66.8,65.0,29.87,East,98,1.0,2.0,95,0.03,,,0.75,0,weatherlink.com 1.10,2013-06-03 03:33:00,
2013-06-02 23:48:00,66.4,65.0,29.87,ENE,71,0.0,2.0,96,0.03,,,0.75,0,weatherlink.com 1.10,2013-06-03 03:48:00,